createdAt,value
2022-08-09T00:04:06.221Z,74.89
2022-08-09T00:09:17.744Z,75.31
2022-08-09T00:14:30.576Z,75.48
2022-08-09T00:19:40.391Z,75.82
2022-08-09T00:24:42.084Z,76.54
2022-08-09T00:30:25.232Z,77.10
2022-08-09T00:35:06.589Z,77.82
2022-08-09T00:40:16.939Z,78.30
2022-08-09T00:45:20.165Z,78.36
2022-08-09T00:50:25.709Z,79.02
2022-08-09T00:56:02.947Z,79.34
2022-08-09T01:00:54.556Z,79.85
2022-08-09T01:06:17.752Z,79.97
2022-08-09T01:11:42.333Z,80.42
2022-08-09T01:17:01.594Z,80.28
2022-08-09T01:22:16.418Z,80.47
2022-08-09T01:27:18.526Z,80.92
2022-08-09T01:32:39.172Z,81.38
2022-08-09T01:38:05.883Z,82.18
2022-08-09T01:43:03.906Z,82.91
2022-08-09T01:48:06.319Z,83.08
2022-08-09T01:53:19.800Z,83.02
2022-08-09T01:58:24.313Z,83.71
2022-08-09T02:03:26.224Z,84.00
2022-08-09T02:08:40.511Z,84.30
2022-08-09T02:13:55.296Z,84.69
2022-08-09T02:19:09.202Z,84.30
2022-08-09T02:24:12.354Z,84.41
2022-08-09T02:29:31.299Z,84.67
2022-08-09T02:34:41.245Z,85.05
2022-08-09T02:40:01.513Z,84.89
2022-08-09T02:45:07.077Z,85.30
2022-08-09T02:50:13.533Z,84.75
2022-08-09T02:55:20.237Z,84.36
2022-08-09T03:00:26.063Z,85.03
2022-08-09T03:05:28.636Z,85.71
2022-08-09T03:10:30.371Z,85.94
2022-08-09T03:15:40.496Z,85.85
2022-08-09T03:20:53.851Z,85.95
2022-08-09T03:25:58.582Z,86.23
2022-08-09T03:31:10.220Z,86.89
2022-08-09T03:36:27.805Z,87.23
2022-08-09T03:41:45.844Z,87.14
2022-08-09T03:46:50.526Z,87.76
2022-08-09T03:51:56.728Z,87.17
2022-08-09T03:57:04.565Z,87.45
2022-08-09T04:02:26.926Z,87.83
2022-08-09T04:07:47.284Z,88.59
2022-08-09T04:12:52.280Z,88.86
2022-08-09T04:17:57.474Z,88.79
2022-08-09T04:22:59.588Z,89.19
2022-08-09T04:28:02.631Z,89.42
2022-08-09T04:33:05.530Z,89.41
2022-08-09T04:38:09.524Z,89.58
2022-08-09T04:43:11.195Z,90.04
2022-08-09T04:48:15.496Z,89.97
2022-08-09T04:53:17.228Z,88.62
2022-08-09T04:58:18.941Z,87.48
2022-08-09T05:03:39.898Z,87.47
2022-08-09T05:08:44.053Z,86.28
2022-08-09T05:13:49.703Z,85.68
2022-08-09T05:18:59.269Z,85.14
2022-08-09T05:24:04.071Z,84.99
2022-08-09T05:29:06.622Z,85.55
2022-08-09T05:34:08.273Z,85.44
2022-08-09T05:39:28.562Z,84.90
2022-08-09T05:44:32.905Z,84.26
2022-08-09T05:50:23.941Z,83.69
2022-08-09T05:54:58.122Z,83.13
2022-08-09T06:00:09.023Z,82.30
2022-08-09T06:05:13.801Z,82.07
2022-08-09T06:10:15.655Z,82.12
2022-08-09T06:15:17.671Z,81.81
2022-08-09T06:20:19.433Z,81.27
2022-08-09T06:25:21.359Z,79.93
2022-08-09T06:30:23.160Z,79.76
2022-08-09T06:35:56.059Z,79.96
2022-08-09T06:40:46.512Z,79.74
2022-08-09T06:46:08.100Z,78.71
2022-08-09T06:51:10.952Z,78.40
2022-08-09T06:56:13.416Z,78.06
2022-08-09T07:01:16.344Z,77.40
2022-08-09T07:06:18.685Z,76.51
2022-08-09T07:11:23.466Z,77.30
2022-08-09T07:16:41.231Z,76.87
2022-08-09T07:21:55.844Z,76.48
2022-08-09T07:27:01.207Z,76.19
2022-08-09T07:32:03.551Z,75.49
2022-08-09T07:37:05.304Z,75.88
2022-08-09T07:42:17.401Z,74.20
2022-08-09T07:47:19.468Z,74.03
2022-08-09T07:52:29.813Z,71.90
2022-08-09T07:57:36.117Z,70.13
2022-08-09T08:02:42.257Z,70.37
2022-08-09T08:08:43.659Z,67.77
2022-08-09T08:13:06.307Z,66.03
2022-08-09T08:18:12.198Z,65.04
2022-08-09T08:23:18.552Z,64.81
2022-08-09T08:28:32.163Z,64.57
2022-08-09T08:33:49.589Z,62.85
2022-08-09T08:38:54.991Z,63.95
2022-08-09T08:44:02.523Z,61.53
2022-08-09T08:49:07.122Z,61.54
2022-08-09T08:54:20.403Z,61.16
2022-08-09T08:59:22.517Z,61.05
2022-08-09T09:04:33.177Z,60.07
2022-08-09T09:10:02.378Z,56.84
2022-08-09T09:15:07.018Z,57.30
2022-08-09T09:20:15.249Z,55.01
2022-08-09T09:26:04.292Z,54.80
2022-08-09T09:30:57.508Z,53.98
2022-08-09T09:36:06.239Z,54.85
2022-08-09T09:41:33.488Z,53.03
2022-08-09T09:46:51.729Z,53.67
2022-08-09T09:52:16.564Z,51.50
2022-08-09T09:58:03.317Z,51.04
2022-08-09T10:02:52.760Z,50.30
2022-08-09T10:08:25.951Z,50.77
2022-08-09T10:13:45.297Z,49.91
2022-08-09T10:18:54.436Z,50.25
2022-08-09T10:23:57.878Z,49.19
2022-08-09T10:29:35.922Z,50.82
2022-08-09T10:34:33.110Z,49.62
2022-08-09T10:39:40.888Z,49.03
2022-08-09T10:45:02.176Z,47.14
2022-08-09T10:50:57.428Z,46.21
2022-08-09T10:56:23.984Z,46.95
2022-08-09T11:03:14.429Z,45.98
2022-08-09T11:07:01.425Z,43.54
2022-08-09T11:12:12.146Z,44.56
2022-08-09T11:17:13.840Z,44.63
2022-08-09T11:22:21.557Z,43.28
2022-08-09T11:28:04.100Z,42.97
2022-08-09T11:33:19.209Z,42.26
2022-08-09T11:38:32.047Z,41.56
2022-08-09T11:43:34.844Z,43.25
2022-08-09T11:48:54.382Z,41.15
2022-08-09T11:54:13.131Z,41.56
2022-08-09T11:59:30.414Z,40.93
2022-08-09T12:04:37.976Z,38.47
2022-08-09T12:09:39.908Z,38.61
2022-08-09T12:15:08.299Z,36.41
2022-08-09T12:20:16.662Z,35.05
2022-08-09T12:25:36.492Z,35.06
2022-08-09T12:30:39.606Z,35.62
2022-08-09T12:35:42.898Z,34.32
2022-08-09T12:40:51.928Z,33.44
2022-08-09T12:46:00.007Z,33.49
2022-08-09T12:51:03.938Z,32.26
2022-08-09T12:56:43.409Z,32.07
2022-08-09T13:01:46.851Z,31.84
2022-08-09T13:06:51.084Z,33.02
2022-08-09T13:12:01.673Z,34.29
2022-08-09T13:17:05.206Z,31.70
2022-08-09T13:22:36.905Z,32.61
2022-08-09T13:27:54.318Z,33.79
2022-08-09T13:32:57.976Z,32.40
2022-08-09T13:38:00.226Z,32.24
2022-08-09T13:43:05.256Z,31.63
2022-08-09T13:48:11.360Z,30.48
2022-08-09T13:53:16.675Z,30.06
2022-08-09T13:58:18.398Z,28.78
2022-08-09T14:04:01.388Z,28.92
2022-08-09T14:08:43.353Z,28.42
2022-08-09T14:14:24.563Z,28.46
2022-08-09T14:19:07.199Z,28.34
2022-08-09T14:24:22.153Z,26.45
2022-08-09T14:30:35.124Z,26.88
2022-08-09T14:34:55.675Z,26.76
2022-08-09T14:39:58.567Z,26.12
2022-08-09T14:46:58.196Z,25.51
2022-08-09T14:50:23.494Z,25.23
2022-08-09T14:55:29.194Z,25.65
2022-08-09T15:00:36.123Z,26.01
2022-08-09T15:05:38.490Z,25.35
2022-08-09T15:10:41.319Z,25.77
2022-08-09T15:15:43.747Z,25.50
2022-08-09T15:22:00.632Z,24.83
2022-08-09T15:26:18.559Z,24.42
2022-08-09T15:31:41.659Z,24.26
2022-08-09T15:36:48.101Z,24.29
2022-08-09T15:41:50.815Z,24.43
2022-08-09T15:46:52.587Z,24.67
2022-08-09T15:52:03.580Z,23.36
2022-08-09T15:57:08.564Z,24.64
2022-08-09T16:02:13.420Z,23.98
2022-08-09T16:07:15.269Z,23.84
2022-08-09T16:12:17.869Z,25.21
2022-08-09T16:17:20.252Z,24.09
2022-08-09T16:22:24.234Z,24.90
2022-08-09T16:27:29.812Z,25.77
2022-08-09T16:32:53.285Z,25.39
2022-08-09T16:37:56.882Z,25.42
2022-08-09T16:43:02.254Z,25.74
2022-08-09T16:48:39.725Z,25.65
2022-08-09T16:53:33.828Z,25.21
2022-08-09T16:58:36.889Z,26.41
2022-08-09T17:03:38.839Z,26.21
2022-08-09T17:09:01.835Z,26.18
2022-08-09T17:14:05.247Z,26.49
2022-08-09T17:19:06.966Z,26.14
2022-08-09T17:24:27.071Z,27.19
2022-08-09T17:29:38.084Z,27.92
2022-08-09T17:35:07.697Z,28.22
2022-08-09T17:40:06.040Z,28.79
2022-08-09T17:45:37.565Z,29.31
2022-08-09T17:50:41.132Z,29.52
2022-08-09T17:56:03.390Z,29.91
2022-08-09T18:01:08.483Z,30.74
2022-08-09T18:06:14.838Z,30.79
2022-08-09T18:12:04.835Z,31.55
2022-08-09T18:16:56.365Z,31.54
2022-08-09T18:21:58.100Z,32.83
2022-08-09T18:27:03.609Z,32.88
2022-08-09T18:32:08.978Z,33.41
2022-08-09T18:37:48.819Z,34.49
2022-08-09T18:42:33.290Z,35.09
2022-08-09T18:47:37.631Z,35.90
2022-08-09T18:52:39.763Z,36.75
2022-08-09T18:57:45.436Z,38.78
2022-08-09T19:02:48.762Z,39.24
2022-08-09T19:08:04.854Z,39.54
2022-08-09T19:13:19.994Z,41.87
2022-08-09T19:18:33.926Z,41.39
2022-08-09T19:24:37.174Z,42.03
2022-08-09T19:29:15.468Z,42.03
2022-08-09T19:34:22.950Z,43.01
2022-08-09T19:39:43.569Z,43.19
2022-08-09T19:44:51.470Z,44.61
2022-08-09T19:50:09.569Z,44.75
2022-08-09T19:55:17.098Z,45.30
2022-08-09T20:00:21.301Z,45.50
2022-08-09T20:05:23.893Z,46.47
2022-08-09T20:10:33.995Z,46.41
2022-08-09T20:16:37.772Z,46.88
2022-08-09T20:20:58.703Z,47.30
2022-08-09T20:26:03.719Z,47.93
2022-08-09T20:31:09.183Z,48.62
2022-08-09T20:36:11.231Z,49.79
2022-08-09T20:41:12.972Z,50.58
2022-08-09T20:46:33.264Z,51.32
2022-08-09T20:51:41.320Z,51.77
2022-08-09T20:56:47.064Z,53.02
2022-08-09T21:01:51.599Z,54.25
2022-08-09T21:06:55.610Z,55.39
2022-08-09T21:18:21.742Z,55.62
2022-08-09T21:22:38.532Z,55.88
2022-08-09T21:27:51.246Z,56.49
2022-08-09T21:32:54.927Z,56.77
2022-08-09T21:38:00.360Z,57.91
2022-08-09T21:43:04.169Z,58.32
2022-08-09T21:48:07.932Z,58.59
2022-08-09T21:53:15.741Z,59.52
2022-08-09T21:58:31.429Z,60.52
2022-08-09T22:03:33.154Z,60.83
2022-08-09T22:08:38.474Z,61.98
2022-08-09T22:13:46.018Z,62.70
2022-08-09T22:18:54.583Z,63.21
2022-08-09T22:24:01.516Z,64.22
2022-08-09T22:29:07.205Z,65.20
2022-08-09T22:34:14.783Z,65.34
2022-08-09T22:39:47.242Z,66.29
2022-08-09T22:44:38.676Z,66.31
2022-08-09T22:49:47.496Z,66.73
2022-08-09T22:54:53.945Z,66.91
2022-08-09T22:59:59.337Z,67.84
2022-08-09T23:05:01.253Z,68.05
2022-08-09T23:10:07.859Z,68.64
2022-08-09T23:15:10.023Z,69.23
2022-08-09T23:20:11.865Z,69.79
2022-08-09T23:25:13.574Z,70.18
2022-08-09T23:30:15.330Z,70.43
2022-08-09T23:35:17.056Z,71.16
2022-08-09T23:40:18.762Z,71.28
2022-08-09T23:45:38.283Z,71.47
2022-08-09T23:50:40.331Z,72.32
2022-08-09T23:55:49.196Z,72.41
